Detall de PIREP

Printer-friendly versionPDF version

[2014/01/11 15:26:00]
Flight IATA:CT2213
Pilot Number:012
Company ICAO:CAT
Aircraft Type:F100/A
PAX:103
Aircraft Registration:PFJ
Departing Airport: LFST
Destination Airport: LFMP
Alternate Airport:LFBO
Online: VATSIM
Route:POGOL R11 EPL G21 MOU A27 SIJAN
Flight Level:F190
No Slew and time accel
No pause
Crash detect
Detect pilot in Cockpit between each 30 and 45 minutes
15:26 Zero fuel Weight: 81610 Lbs, Fuel Weight: 17581 Lbs
15:26 VATSIM:LFST 111500Z AUTO VRB02KT 7000 FEW018 SCT046 BKN052 06/05 Q1020
15:26 VATSIM:LFMP 111430Z 07006KT 9999 BKN025 BKN260 13/09 Q1020 NOSIG
15:26 VOICE CATALONIAN
15:32 Parking Brakes off
15:37 Take-off
15:37 Take off Weight: 98665 Lbs
15:37 Wind: 358º @ 002 Knots Heading: 048º
15:37 POS N48º 32´ 37´´ E007º 38´ 15´´
15:37 Gear Up: 158 Knots
15:37 Flaps:2 at 158 Knots
15:38 Flaps:1 at 167 Knots
15:38 Flaps:0 at 181 Knots
15:45 TOC
15:45 Fuel Weight: 15670 Lb
15:52 Wind:276º@027 Knots Heading: 260º Ground Speed: 387 Knots Altitude 19199 ft
16:07 Wind:265º@019 Knots Heading: 224º Ground Speed: 401 Knots Altitude 19229 ft
16:22 Wind:267º@014 Knots Heading: 194º Ground Speed: 413 Knots Altitude 19225 ft
16:37 Wind:232º@016 Knots Heading: 188º Ground Speed: 405 Knots Altitude 19215 ft
16:40 TOD
16:40 Fuel Weight: 10137 Lb
16:52 Wind:226º@004 Knots Heading: 122º Ground Speed: 236 Knots Altitude 4330 ft
16:55 Flaps:1 at 189 Knots
16:58 Flaps:2 at 183 Knots
16:58 Gear Down: 179 Knots
16:58 Flaps:3 at 170 Knots
16:58 Flaps:4 at 147 Knots
17:01 TouchDown:Rate -139 ft/min Speed: 120 Knots
17:01 VATSIM:LFMP 111630Z 03003KT 9999 FEW025 BKN036 13/10 Q1020 NOSIG
17:01 Land
17:01 Wind:029º@003 Knots
17:01 Heading: 330º
17:01 Flight Duration: 01:24
17:01 Landing Weight: 90828 Lbs
17:01 POS N42º 44´ 47´´ E002º 52´ 05´´
17:04 Parking brakes on
17:04 Block to Block Duration: 01:32
17:04 Final Fuel: 9076 Lbls
17:04 Spent Fuel: 8505 Lbls
17:04 Flight Length: 491 NM
17:04 TOD Land Length: 85 NM

Exportar CSV

Powered by Drupal - Modified by Danger4k